Thunder radar more information blitzortung!


avis per Pluja more information rain snow radar


Visita la nostra xarxa de llocs de meteo:

Template documentation
and downloads

And another site



Rain From: 16-11-2018 00:00 Until: 09:59 warning for: Rain Level: Yellow info button

Pagina Historial Weather Underground text

Diari Resum Desembre 27, 2017 Unitats:  Imperial    Mètric   Tant
« Previous Dia
SegĂźent Dia »
Diari Setmana Mensual Anual Personalitzada
  Maxima: Minima: Media:
Temperatura: TemperatureC °F 4.7 °F 8.2 °F
Punt de rosada: DewpointC °F -3.3 °F -0.7 °F
Humitat: Humidity % 42 % 54 %
Wind Speed: WindSpeedKMH mph 0.0 mph 15.6 mph
RĂ fegues de vent: WindSpeedGustKMH mph - -
Vent:- - West
Pression baro: PressurehPa in 996.8 in -
Precipitacions: 0.0 in    
Historical Graphs
 
 
Dades de taula per Desembre 27, 2017
Temps Temperatura Punt de rosada Pression baro Vent Wind Speed RĂ fegues de vent Humitat Rainfall Rate (Hourly)
TemperatureC °F DewpointC °F PressurehPa in Calm     Humidity % HourlyPrecipMM in
00:00 5.3 °F 2.3 °F 996.8 in Calm   3.2 mph 81 % 0.0 in
00:03 5.6 °F 0.2 °F 1005.0 in WSW 9.3 mph 9.3 mph 68 % 0.0 in
00:05 5.6 °F 0.2 °F 1005.0 in WSW 7.4 mph 7.4 mph 68 % 0.0 in
00:10 5.4 °F 2.4 °F 997.9 in Calm   1.6 mph 81 % 0.0 in
00:20 5.2 °F 2.1 °F 996.8 in Calm   1.6 mph 80 % 0.0 in
00:30 5.3 °F 2.3 °F 996.8 in SW 1.6 mph 1.6 mph 81 % 0.0 in
00:40 5.3 °F 2.3 °F 997.9 in SW 1.6 mph 1.6 mph 81 % 0.0 in
00:50 5.1 °F 2.1 °F 997.9 in SW 1.6 mph 3.2 mph 81 % 0.0 in
01:00 5.0 °F 2.0 °F 997.9 in Calm   1.6 mph 81 % 0.0 in
01:10 5.1 °F 2.1 °F 996.8 in Calm   1.6 mph 81 % 0.0 in
01:20 5.0 °F 2.0 °F 996.8 in NW 1.6 mph 3.2 mph 81 % 0.0 in
01:30 5.0 °F 2.0 °F 996.8 in North 1.6 mph 4.8 mph 81 % 0.0 in
01:40 5.1 °F 1.9 °F 996.8 in NW 1.6 mph 3.2 mph 80 % 0.0 in
01:50 5.2 °F 2.2 °F 997.9 in Calm   1.6 mph 81 % 0.0 in
02:00 5.1 °F 2.1 °F 997.9 in Calm   1.6 mph 81 % 0.0 in
02:10 5.2 °F 2.1 °F 997.9 in Calm   4.8 mph 80 % 0.0 in
02:20 4.9 °F 1.7 °F 997.9 in WNW 1.6 mph 3.2 mph 80 % 0.0 in
02:30 5.0 °F 1.8 °F 997.9 in West 3.2 mph 4.8 mph 80 % 0.0 in
02:40 5.1 °F 1.8 °F 997.9 in WNW 4.8 mph 4.8 mph 79 % 0.0 in
02:50 5.3 °F 1.9 °F 997.9 in North 3.2 mph 4.8 mph 79 % 0.0 in
03:00 5.7 °F 2.3 °F 997.9 in WNW 4.8 mph 8.0 mph 79 % 0.0 in
03:10 6.1 °F 2.6 °F 997.9 in WNW 4.8 mph 8.0 mph 78 % 0.0 in
03:20 6.4 °F 2.7 °F 997.9 in West 4.8 mph 9.7 mph 77 % 0.0 in
03:40 7.0 °F 2.9 °F 997.9 in West 9.7 mph 9.7 mph 75 % 0.0 in
03:50 7.5 °F 2.6 °F 997.9 in West 8.0 mph 32.2 mph 71 % 0.0 in
04:00 7.9 °F 2.6 °F 997.9 in West 12.9 mph 12.9 mph 69 % 0.0 in
04:10 8.2 °F 2.7 °F 997.9 in WNW 9.7 mph 16.1 mph 68 % 0.0 in
04:20 8.6 °F 2.4 °F 997.9 in WNW 9.7 mph 19.3 mph 65 % 0.0 in
04:40 9.2 °F 2.3 °F 997.9 in WSW 12.9 mph 19.3 mph 62 % 0.0 in
04:50 9.5 °F 2.3 °F 997.9 in West 4.8 mph 12.9 mph 61 % 0.0 in
05:00 9.7 °F 2.1 °F 997.9 in West 14.5 mph 24.1 mph 59 % 0.0 in
07:30 11.2 °F 1.4 °F 996.8 in West 22.5 mph 22.5 mph 51 % 0.0 in
07:40 11.4 °F 1.6 °F 996.8 in West 16.1 mph 43.4 mph 51 % 0.0 in
07:50 11.4 °F 1.3 °F 997.9 in WSW 24.1 mph 35.4 mph 50 % 0.0 in
08:00 11.6 °F 1.5 °F 997.9 in West 19.3 mph 25.7 mph 50 % 0.0 in
08:10 11.5 °F 1.4 °F 998.9 in West 12.9 mph 38.6 mph 50 % 0.0 in
11:09 9.8 °F 1.7 °F 997.9 in WSW 16.7 mph 16.7 mph 57 % 0.0 in
11:10 9.9 °F 1.8 °F 997.9 in SSW 24.1 mph 24.1 mph 57 % 0.0 in
11:12 9.9 °F 1.8 °F 997.9 in WNW 24.1 mph 24.1 mph 57 % 0.0 in
11:15 10.0 °F 2.1 °F 997.9 in West 16.7 mph 16.7 mph 58 % 0.0 in
11:18 10.0 °F 1.9 °F 997.9 in WNW 14.8 mph 14.8 mph 57 % 0.0 in
11:20 10.0 °F 1.9 °F 997.9 in ENE 14.0 mph 14.0 mph 57 % 0.0 in
11:25 10.0 °F 1.6 °F 997.9 in WNW 18.5 mph 18.5 mph 56 % 0.0 in
11:26 10.0 °F 1.6 °F 997.9 in WSW 18.5 mph 18.5 mph 56 % 0.0 in
11:31 10.1 °F 1.7 °F 997.9 in ENE 24.1 mph 24.1 mph 56 % 0.0 in
11:32 10.1 °F 1.7 °F 997.9 in West 20.6 mph 20.6 mph 56 % 0.0 in
11:34 10.0 °F 1.6 °F 997.9 in West 24.1 mph 24.1 mph 56 % 0.0 in
11:39 10.2 °F 1.8 °F 998.9 in WSW 22.2 mph 22.2 mph 56 % 0.0 in
11:40 10.2 °F 1.6 °F 998.9 in West 12.9 mph 24.1 mph 55 % 0.0 in
11:41 10.2 °F 1.6 °F 998.9 in WNW 24.1 mph 24.1 mph 55 % 0.0 in
11:46 10.5 °F 2.1 °F 998.9 in WNW 16.7 mph 16.7 mph 56 % 0.0 in
11:47 10.4 °F 1.7 °F 998.9 in WNW 16.7 mph 16.7 mph 55 % 0.0 in
11:48 10.4 °F 1.7 °F 998.9 in WNW 20.4 mph 20.4 mph 55 % 0.0 in
11:53 10.4 °F 1.7 °F 998.9 in WSW 16.7 mph 16.7 mph 55 % 0.0 in
11:54 10.4 °F 1.7 °F 998.9 in WSW 16.7 mph 16.7 mph 55 % 0.0 in
11:59 10.4 °F 1.7 °F 998.9 in WSW 16.7 mph 16.7 mph 55 % 0.0 in
12:04 10.5 °F 1.6 °F 998.9 in WNW 18.5 mph 18.5 mph 54 % 0.0 in
12:09 10.6 °F 1.7 °F 998.9 in SW 20.4 mph 20.4 mph 54 % 0.0 in
12:10 10.5 °F 1.6 °F 998.9 in WNW 20.4 mph 20.4 mph 54 % 0.0 in
12:15 10.6 °F 1.7 °F 998.9 in West 13.0 mph 13.0 mph 54 % 0.0 in
12:20 10.8 °F 1.6 °F 998.9 in WNW 38.9 mph 38.9 mph 53 % 0.0 in
12:25 10.8 °F 1.6 °F 997.9 in WNW 33.3 mph 33.3 mph 53 % 0.0 in
12:30 10.8 °F 1.6 °F 997.9 in West 24.1 mph 24.1 mph 53 % 0.0 in
12:31 10.9 °F 1.7 °F 997.9 in West 20.4 mph 20.4 mph 53 % 0.0 in
12:36 10.9 °F 1.4 °F 997.9 in North 24.1 mph 24.1 mph 52 % 0.0 in
12:39 10.9 °F 1.4 °F 997.9 in WSW 27.8 mph 27.8 mph 52 % 0.0 in
12:41 10.9 °F 1.4 °F 997.9 in NW 38.9 mph 38.9 mph 52 % 0.0 in
12:46 11.0 °F 1.5 °F 997.9 in WSW 27.0 mph 27.0 mph 52 % 0.0 in
12:47 11.0 °F 1.5 °F 997.9 in SW 27.8 mph 27.8 mph 52 % 0.0 in
12:52 11.0 °F 1.5 °F 997.9 in SW 40.7 mph 40.7 mph 52 % 0.0 in
12:56 11.1 °F 1.6 °F 996.8 in West 24.1 mph 24.1 mph 52 % 0.0 in
13:01 11.1 °F 1.6 °F 996.8 in West 27.8 mph 27.8 mph 52 % 0.0 in
13:05 11.2 °F 1.7 °F 996.8 in West 20.9 mph 20.9 mph 52 % 0.0 in
13:08 11.2 °F 1.7 °F 996.8 in SW 16.7 mph 16.7 mph 52 % 0.0 in
13:13 11.1 °F 1.3 °F 996.8 in NW 44.4 mph 44.4 mph 51 % 0.0 in
13:14 11.1 °F 1.3 °F 996.8 in West 33.3 mph 33.3 mph 51 % 0.0 in
13:19 11.2 °F 1.4 °F 996.8 in WSW 20.6 mph 20.6 mph 51 % 0.0 in
14:13 11.5 °F 1.4 °F 997.9 in WNW 16.7 mph 16.7 mph 50 % 0.0 in
14:14 11.6 °F 1.8 °F 997.9 in WSW 22.2 mph 22.2 mph 51 % 0.0 in
14:18 11.5 °F 1.4 °F 997.9 in WSW 29.6 mph 29.6 mph 50 % 0.0 in
14:20 11.5 °F 1.4 °F 997.9 in WSW 35.2 mph 35.2 mph 50 % 0.0 in
14:25 11.6 °F 1.8 °F 997.9 in WNW 13.0 mph 16.1 mph 51 % 0.0 in
14:26 11.6 °F 1.8 °F 997.9 in WSW 27.8 mph 27.8 mph 51 % 0.0 in
14:31 11.8 °F 2.0 °F 997.9 in SSE 20.4 mph 20.4 mph 51 % 0.0 in
14:33 11.8 °F 2.0 °F 997.9 in West 24.1 mph 24.1 mph 51 % 0.0 in
14:37 11.8 °F 1.7 °F 997.9 in WSW 24.1 mph 24.1 mph 50 % 0.0 in
14:39 11.8 °F 1.7 °F 997.9 in NW 35.2 mph 35.2 mph 50 % 0.0 in
14:44 11.9 °F 1.8 °F 997.9 in WSW 18.5 mph 18.5 mph 50 % 0.0 in
14:50 11.9 °F 1.8 °F 997.9 in West 11.3 mph 33.8 mph 50 % 0.0 in
14:51 11.9 °F 1.8 °F 997.9 in WNW 24.8 mph 24.8 mph 50 % 0.0 in
14:56 11.9 °F 1.8 °F 998.9 in WSW 22.2 mph 22.2 mph 50 % 0.0 in
14:58 12.0 °F 1.9 °F 998.9 in West 16.7 mph 16.7 mph 50 % 0.0 in
14:59 12.1 °F 2.0 °F 998.9 in West 20.9 mph 20.9 mph 50 % 0.0 in
15:04 12.0 °F 1.9 °F 998.9 in NW 25.9 mph 25.9 mph 50 % 0.0 in
15:06 12.0 °F 1.9 °F 998.9 in WSW 20.4 mph 20.4 mph 50 % 0.0 in
15:07 12.0 °F 1.9 °F 998.9 in WSW 20.4 mph 20.4 mph 50 % 0.0 in
15:12 12.1 °F 2.0 °F 998.9 in West 16.9 mph 16.9 mph 50 % 0.0 in
15:15 12.1 °F 2.0 °F 998.9 in WSW 17.2 mph 17.2 mph 50 % 0.0 in
15:18 12.0 °F 1.6 °F 998.9 in WNW 13.0 mph 13.0 mph 49 % 0.0 in
15:22 12.0 °F 1.3 °F 998.9 in West 16.7 mph 16.7 mph 48 % 0.0 in
15:23 12.0 °F 1.6 °F 998.9 in WSW 13.0 mph 13.0 mph 49 % 0.0 in
15:28 12.0 °F 1.3 °F 998.9 in SE 22.2 mph 22.2 mph 48 % 0.0 in
15:29 12.0 °F 1.3 °F 998.9 in WSW 16.9 mph 16.9 mph 48 % 0.0 in
15:31 12.0 °F 1.3 °F 998.9 in WNW 24.1 mph 24.1 mph 48 % 0.0 in
15:34 12.0 °F 1.0 °F 998.9 in SW 24.1 mph 24.1 mph 47 % 0.0 in
15:39 11.8 °F 0.8 °F 999.9 in WNW 20.4 mph 20.4 mph 47 % 0.0 in
15:40 11.8 °F 0.8 °F 999.9 in West 11.3 mph 20.9 mph 47 % 0.0 in
15:42 11.9 °F 0.9 °F 999.9 in WNW 22.2 mph 22.2 mph 47 % 0.0 in
15:45 11.9 °F 0.6 °F 999.9 in West 20.4 mph 20.4 mph 46 % 0.0 in
15:50 11.8 °F 0.2 °F 999.9 in WSW 20.4 mph 20.4 mph 45 % 0.0 in
15:51 11.8 °F 0.2 °F 999.9 in WSW 20.4 mph 20.4 mph 45 % 0.0 in
15:55 11.8 °F 0.2 °F 999.9 in WSW 25.9 mph 25.9 mph 45 % 0.0 in
15:56 11.8 °F 0.2 °F 999.9 in WSW 25.9 mph 25.9 mph 45 % 0.0 in
16:01 11.8 °F -0.1 °F 999.9 in West 32.0 mph 32.0 mph 44 % 0.0 in
16:03 11.8 °F -0.4 °F 999.9 in WSW 24.1 mph 24.1 mph 43 % 0.0 in
16:08 11.8 °F -0.4 °F 999.9 in WSW 22.2 mph 22.2 mph 43 % 0.0 in
16:09 11.8 °F -0.4 °F 999.9 in West 22.2 mph 22.2 mph 43 % 0.0 in
16:10 11.8 °F -0.4 °F 999.9 in West 20.4 mph 20.4 mph 43 % 0.0 in
16:14 11.7 °F -0.5 °F 999.9 in WSW 13.0 mph 13.0 mph 43 % 0.0 in
16:15 11.7 °F -0.5 °F 999.9 in West 16.7 mph 16.7 mph 43 % 0.0 in
16:19 11.6 °F -0.6 °F 999.9 in WNW 16.7 mph 16.7 mph 43 % 0.0 in
16:25 11.4 °F -0.8 °F 999.9 in WSW 20.4 mph 20.4 mph 43 % 0.0 in
16:30 11.3 °F -0.8 °F 999.9 in West 27.8 mph 27.8 mph 43 % 0.0 in
16:31 11.3 °F -0.8 °F 999.9 in WNW 27.8 mph 27.8 mph 43 % 0.0 in
16:36 11.1 °F -1.0 °F 999.9 in SW 14.0 mph 14.0 mph 43 % 0.0 in
16:38 11.1 °F -1.0 °F 998.9 in WNW 11.1 mph 11.1 mph 43 % 0.0 in
16:43 11.0 °F -1.1 °F 998.9 in NW 14.8 mph 14.8 mph 43 % 0.0 in
16:48 10.9 °F -1.2 °F 998.9 in SSW 22.2 mph 22.2 mph 43 % 0.0 in
16:53 10.7 °F -1.4 °F 1000.9 in WNW 16.7 mph 16.7 mph 43 % 0.0 in
16:54 10.6 °F -1.5 °F 1000.9 in SW 13.0 mph 13.0 mph 43 % 0.0 in
16:57 10.5 °F -1.6 °F 1000.9 in NW 14.8 mph 14.8 mph 43 % 0.0 in
17:02 10.4 °F -1.3 °F 1000.9 in NW 27.8 mph 27.8 mph 44 % 0.0 in
17:03 10.4 °F -1.3 °F 1000.9 in NW 27.8 mph 27.8 mph 44 % 0.0 in
17:08 10.3 °F -1.4 °F 1000.9 in WSW 18.5 mph 18.5 mph 44 % 0.0 in
17:10 10.2 °F -1.6 °F 1000.9 in West 9.3 mph 10.8 mph 44 % 0.0 in
17:15 10.1 °F -1.6 °F 1000.9 in WSW 9.3 mph 10.0 mph 44 % 0.0 in
17:17 10.0 °F -1.7 °F 1000.9 in WSW 11.1 mph 11.1 mph 44 % 0.0 in
17:20 9.9 °F -1.8 °F 1000.9 in West 22.2 mph 22.2 mph 44 % 0.0 in
17:25 9.8 °F -2.2 °F 1000.9 in West 22.2 mph 22.2 mph 43 % 0.0 in
17:26 9.8 °F -2.2 °F 1000.9 in WSW 27.8 mph 27.8 mph 43 % 0.0 in
17:28 9.7 °F -2.3 °F 1000.9 in WSW 11.1 mph 11.1 mph 43 % 0.0 in
17:33 9.6 °F -2.4 °F 1000.9 in West 20.4 mph 20.4 mph 43 % 0.0 in
17:34 9.5 °F -2.5 °F 1000.9 in West 20.4 mph 20.4 mph 43 % 0.0 in
17:39 9.4 °F -2.9 °F 1001.9 in WSW 24.1 mph 24.1 mph 42 % 0.0 in
17:44 9.3 °F -3.0 °F 1001.9 in West 14.8 mph 14.8 mph 42 % 0.0 in
17:45 9.3 °F -3.0 °F 1001.9 in North 21.2 mph 21.2 mph 42 % 0.0 in
17:50 9.1 °F -3.2 °F 1001.9 in WSW 13.0 mph 13.0 mph 42 % 0.0 in
17:55 9.0 °F -3.2 °F 1000.9 in WSW 20.4 mph 20.4 mph 42 % 0.0 in
17:57 8.9 °F -3.3 °F 1000.9 in WSW 9.3 mph 10.8 mph 42 % 0.0 in
18:02 8.7 °F -3.2 °F 1000.9 in West 13.0 mph 13.0 mph 43 % 0.0 in
18:07 8.7 °F -3.2 °F 1000.9 in WNW 13.0 mph 13.0 mph 43 % 0.0 in
18:08 8.7 °F -3.2 °F 1000.9 in West 13.0 mph 13.0 mph 43 % 0.0 in
18:13 8.6 °F -3.3 °F 1001.9 in West 13.0 mph 13.0 mph 43 % 0.0 in
18:16 8.5 °F -3.1 °F 1001.9 in WNW 11.1 mph 11.1 mph 44 % 0.0 in
18:18 8.5 °F -3.1 °F 1001.9 in SW 18.5 mph 18.5 mph 44 % 0.0 in
18:20 5.0 °F -2.3 °F 1006.0 in West 11.3 mph 11.3 mph 59 % 0.0 in
18:23 8.4 °F -3.2 °F 1001.9 in West 13.0 mph 13.0 mph 44 % 0.0 in
18:24 8.4 °F -3.2 °F 1001.9 in WSW 25.9 mph 25.9 mph 44 % 0.0 in
18:29 8.3 °F -2.9 °F 1001.9 in West 13.0 mph 13.0 mph 45 % 0.0 in
18:30 4.9 °F -2.4 °F 1006.0 in West 8.0 mph 11.3 mph 59 % 0.0 in
18:34 8.2 °F -3.1 °F 1001.9 in WNW 24.1 mph 24.1 mph 45 % 0.0 in
18:35 8.2 °F -3.1 °F 1001.9 in WNW 24.1 mph 24.1 mph 45 % 0.0 in
18:36 8.1 °F -3.1 °F 1001.9 in WNW 13.0 mph 13.0 mph 45 % 0.0 in
18:40 8.1 °F -2.8 °F 1002.9 in WSW 16.1 mph 16.1 mph 46 % 0.0 in
18:45 8.0 °F -2.9 °F 1002.9 in WSW 13.0 mph 13.0 mph 46 % 0.0 in
18:50 7.9 °F -3.0 °F 1002.9 in WSW 20.4 mph 20.4 mph 46 % 0.0 in
18:51 7.9 °F -3.0 °F 1002.9 in West 20.1 mph 20.1 mph 46 % 0.0 in
18:56 7.9 °F -3.0 °F 1002.9 in WSW 14.8 mph 14.8 mph 46 % 0.0 in
19:00 4.7 °F -2.2 °F 1006.0 in West 8.0 mph 9.7 mph 61 % 0.0 in
19:01 7.8 °F -3.1 °F 1002.9 in SW 9.3 mph 9.3 mph 46 % 0.0 in
19:02 7.8 °F -3.1 °F 1002.9 in WSW 18.5 mph 18.5 mph 46 % 0.0 in
19:07 7.8 °F -3.1 °F 1002.9 in WSW 20.4 mph 20.4 mph 46 % 0.0 in
19:09 7.7 °F -3.2 °F 1003.9 in WSW 13.0 mph 13.0 mph 46 % 0.0 in
19:10 4.7 °F -2.2 °F 1005.0 in WSW 4.8 mph 9.7 mph 61 % 0.0 in
19:14 7.6 °F -3.0 °F 1003.9 in West 20.4 mph 20.4 mph 47 % 0.0 in
19:16 7.6 °F -3.0 °F 1003.9 in WNW 14.8 mph 14.8 mph 47 % 0.0 in
19:20 7.6 °F -3.0 °F 1003.9 in WNW 18.5 mph 18.5 mph 47 % 0.0 in
19:25 7.5 °F -3.1 °F 1003.9 in WSW 9.3 mph 10.3 mph 47 % 0.0 in
19:26 7.5 °F -3.1 °F 1003.9 in WSW 14.8 mph 14.8 mph 47 % 0.0 in
19:27 7.5 °F -3.1 °F 1003.9 in WSW 15.8 mph 15.8 mph 47 % 0.0 in
19:30 4.8 °F -2.1 °F 1006.0 in WSW 4.8 mph 9.7 mph 61 % 0.0 in
19:32 7.5 °F -3.1 °F 1003.9 in WSW 20.4 mph 20.4 mph 47 % 0.0 in
19:35 7.5 °F -3.1 °F 1003.9 in West 18.5 mph 18.5 mph 47 % 0.0 in
19:38 7.4 °F -2.9 °F 1003.9 in West 22.2 mph 22.2 mph 48 % 0.0 in
19:43 7.4 °F -2.9 °F 1003.9 in West 13.0 mph 13.0 mph 48 % 0.0 in
19:46 7.3 °F -3.0 °F 1003.9 in WSW 19.8 mph 19.8 mph 48 % 0.0 in
19:48 7.4 °F -2.9 °F 1003.9 in West 24.1 mph 24.1 mph 48 % 0.0 in
19:53 7.3 °F -3.0 °F 1003.9 in WSW 16.7 mph 16.7 mph 48 % 0.0 in
19:58 7.3 °F -2.7 °F 1005.0 in WSW 20.4 mph 20.4 mph 49 % 0.0 in
19:59 7.3 °F -2.7 °F 1005.0 in West 18.5 mph 18.5 mph 49 % 0.0 in
20:00 5.0 °F -1.7 °F 1005.0 in SW 3.2 mph 9.7 mph 62 % 0.0 in
20:04 7.2 °F -2.8 °F 1005.0 in West 13.0 mph 13.0 mph 49 % 0.0 in
20:05 7.1 °F -2.9 °F 1005.0 in WSW 11.1 mph 11.1 mph 49 % 0.0 in
20:09 7.1 °F -2.9 °F 1005.0 in WSW 16.7 mph 16.7 mph 49 % 0.0 in
20:14 7.0 °F -3.0 °F 1005.0 in WNW 13.0 mph 13.0 mph 49 % 0.0 in
20:15 7.0 °F -3.0 °F 1005.0 in WSW 13.0 mph 13.0 mph 49 % 0.0 in
20:18 7.0 °F -2.7 °F 1005.0 in WSW 16.7 mph 16.7 mph 50 % 0.0 in
20:20 5.0 °F -1.7 °F 1003.9 in WSW 8.0 mph 11.3 mph 62 % 0.0 in
20:23 6.9 °F -2.8 °F 1006.0 in WNW 11.1 mph 11.1 mph 50 % 0.0 in
20:24 6.9 °F -2.8 °F 1006.0 in WNW 17.2 mph 17.2 mph 50 % 0.0 in
20:25 6.9 °F -2.8 °F 1006.0 in West 16.7 mph 16.7 mph 50 % 0.0 in
20:30 6.8 °F -2.9 °F 1006.0 in WNW 11.9 mph 11.9 mph 50 % 0.0 in
20:35 6.7 °F -3.0 °F 1006.0 in WSW 9.3 mph 9.3 mph 50 % 0.0 in
20:38 6.7 °F -2.7 °F 1005.0 in WSW 13.0 mph 13.0 mph 51 % 0.0 in
20:40 4.8 °F -1.9 °F 1003.9 in WSW 3.2 mph 4.8 mph 62 % 0.0 in
20:42 6.6 °F -2.8 °F 1005.0 in West 14.8 mph 14.8 mph 51 % 0.0 in
20:46 6.5 °F -2.9 °F 1005.0 in SW 16.7 mph 16.7 mph 51 % 0.0 in
20:47 6.5 °F -2.9 °F 1005.0 in WSW 22.2 mph 22.2 mph 51 % 0.0 in
20:50 4.7 °F -1.9 °F 1003.9 in WSW 4.8 mph 4.8 mph 62 % 0.0 in
20:52 6.5 °F -2.9 °F 1005.0 in West 9.3 mph 9.7 mph 51 % 0.0 in
20:53 6.5 °F -2.9 °F 1005.0 in WNW 9.3 mph 9.7 mph 51 % 0.0 in
20:58 6.4 °F -2.8 °F 1006.0 in SW 14.8 mph 14.8 mph 52 % 0.0 in
21:00 4.7 °F -1.9 °F 1003.9 in WSW 8.0 mph 8.0 mph 62 % 0.0 in
21:03 6.3 °F -2.8 °F 1006.0 in WSW 11.1 mph 11.1 mph 52 % 0.0 in
21:05 6.3 °F -2.8 °F 1006.0 in WNW 13.7 mph 13.7 mph 52 % 0.0 in
21:10 6.2 °F -2.9 °F 1006.0 in WSW 13.0 mph 13.0 mph 52 % 0.0 in
21:14 6.2 °F -2.9 °F 1006.0 in WSW 14.8 mph 14.8 mph 52 % 0.0 in
21:19 6.1 °F -2.8 °F 1006.0 in West 18.5 mph 18.5 mph 53 % 0.0 in
21:20 6.1 °F -2.8 °F 1006.0 in WNW 18.5 mph 18.5 mph 53 % 0.0 in
21:25 6.1 °F -2.8 °F 1006.0 in WSW 18.5 mph 18.5 mph 53 % 0.0 in
21:30 6.0 °F -2.9 °F 1006.0 in WNW 13.0 mph 13.0 mph 53 % 0.0 in
21:31 6.0 °F -2.9 °F 1006.0 in WSW 13.0 mph 13.0 mph 53 % 0.0 in
21:36 5.9 °F -2.9 °F 1006.0 in West 20.4 mph 20.4 mph 53 % 0.0 in
21:38 5.9 °F -2.7 °F 1006.0 in WNW 19.5 mph 19.5 mph 54 % 0.0 in
21:43 5.8 °F -2.8 °F 1006.0 in West 16.7 mph 16.7 mph 54 % 0.0 in
21:46 5.8 °F -2.8 °F 1006.0 in WNW 9.3 mph 9.3 mph 54 % 0.0 in
21:48 5.8 °F -2.8 °F 1006.0 in WSW 20.4 mph 20.4 mph 54 % 0.0 in
21:50 4.8 °F -1.9 °F 1005.0 in West 8.0 mph 9.7 mph 62 % 0.0 in
21:53 5.8 °F -2.8 °F 1006.0 in SW 16.7 mph 16.7 mph 54 % 0.0 in
21:54 5.8 °F -2.8 °F 1005.0 in WSW 16.7 mph 16.7 mph 54 % 0.0 in
21:59 5.7 °F -2.9 °F 1005.0 in ENE 11.1 mph 11.1 mph 54 % 0.0 in
22:00 5.0 °F -1.7 °F 1005.0 in West 4.8 mph 8.0 mph 62 % 0.0 in
22:03 5.7 °F -2.9 °F 1005.0 in West 13.0 mph 13.0 mph 54 % 0.0 in
22:06 5.6 °F -3.0 °F 1005.0 in WNW 9.3 mph 9.3 mph 54 % 0.0 in
22:08 5.6 °F -2.7 °F 1006.0 in West 13.0 mph 13.0 mph 55 % 0.0 in
22:10 5.0 °F -1.7 °F 1005.0 in WSW 4.8 mph 8.0 mph 62 % 0.0 in
22:12 5.6 °F -2.7 °F 1006.0 in West 13.0 mph 13.0 mph 55 % 0.0 in
22:14 5.5 °F -2.8 °F 1006.0 in WNW 8.7 mph 9.0 mph 55 % 0.0 in
22:19 5.5 °F -2.8 °F 1006.0 in NW 16.7 mph 16.7 mph 55 % 0.0 in
22:20 5.0 °F -1.7 °F 1005.0 in WSW 8.0 mph 9.7 mph 62 % 0.0 in
22:21 5.5 °F -2.8 °F 1006.0 in SW 11.9 mph 11.9 mph 55 % 0.0 in
22:25 5.5 °F -2.8 °F 1006.0 in West 20.4 mph 20.4 mph 55 % 0.0 in
22:27 5.4 °F -2.9 °F 1006.0 in WNW 13.0 mph 13.0 mph 55 % 0.0 in
22:30 5.0 °F -1.7 °F 1005.0 in WSW 8.0 mph 9.7 mph 62 % 0.0 in
22:31 5.4 °F -2.7 °F 1006.0 in West 9.3 mph 9.3 mph 56 % 0.0 in
22:34 5.4 °F -2.7 °F 1006.0 in SW 18.5 mph 18.5 mph 56 % 0.0 in
22:36 5.3 °F -2.8 °F 1006.0 in West 14.8 mph 14.8 mph 56 % 0.0 in
22:40 4.9 °F -1.8 °F 1005.0 in WSW 3.2 mph 6.4 mph 62 % 0.0 in
22:41 5.3 °F -2.8 °F 1006.0 in WNW 9.5 mph 9.5 mph 56 % 0.0 in
22:42 5.3 °F -2.8 °F 1006.0 in WSW 13.0 mph 13.0 mph 56 % 0.0 in
22:43 5.3 °F -2.8 °F 1006.0 in West 12.2 mph 12.2 mph 56 % 0.0 in
22:48 5.3 °F -2.6 °F 1006.0 in WSW 11.9 mph 11.9 mph 57 % 0.0 in
22:50 4.9 °F -1.8 °F 1005.0 in West 4.8 mph 8.0 mph 62 % 0.0 in
22:52 5.3 °F -2.6 °F 1006.0 in West 9.3 mph 9.3 mph 57 % 0.0 in
22:54 5.3 °F -2.6 °F 1006.0 in West 11.1 mph 11.1 mph 57 % 0.0 in
22:59 5.2 °F -2.6 °F 1006.0 in WSW 13.0 mph 13.0 mph 57 % 0.0 in
23:04 5.2 °F -2.6 °F 1006.0 in West 13.0 mph 13.0 mph 57 % 0.0 in
23:09 5.1 °F -2.5 °F 1006.0 in WSW 14.8 mph 14.8 mph 58 % 0.0 in
23:10 4.7 °F -1.9 °F 1005.0 in WSW 3.2 mph 6.4 mph 62 % 0.0 in
23:14 5.1 °F -2.5 °F 1006.0 in West 9.3 mph 9.3 mph 58 % 0.0 in
23:15 5.1 °F -2.5 °F 1006.0 in WSW 14.8 mph 14.8 mph 58 % 0.0 in
23:20 5.0 °F -2.6 °F 1006.0 in WNW 8.7 mph 8.7 mph 58 % 0.0 in
23:21 5.0 °F -2.6 °F 1006.0 in WSW 9.3 mph 9.3 mph 58 % 0.0 in
23:26 5.0 °F -2.6 °F 1006.0 in WSW 20.4 mph 20.4 mph 58 % 0.0 in
23:27 5.0 °F -2.6 °F 1006.0 in WSW 20.4 mph 20.4 mph 58 % 0.0 in
23:30 5.0 °F -2.6 °F 1006.0 in WSW 7.4 mph 7.9 mph 58 % 0.0 in
23:32 5.0 °F -2.6 °F 1006.0 in WNW 13.0 mph 13.0 mph 58 % 0.0 in
23:36 5.0 °F -2.6 °F 1006.0 in WSW 14.8 mph 14.8 mph 58 % 0.0 in
23:38 5.0 °F -2.6 °F 1006.0 in West 11.1 mph 11.1 mph 58 % 0.0 in
23:43 5.0 °F -2.6 °F 1006.0 in NNW 11.1 mph 11.1 mph 58 % 0.0 in
23:48 5.0 °F -2.6 °F 1006.0 in WNW 13.7 mph 13.7 mph 58 % 0.0 in
23:49 5.0 °F -2.6 °F 1006.0 in WNW 16.7 mph 16.7 mph 58 % 0.0 in
23:53 5.0 °F -2.6 °F 1006.0 in NNW 7.4 mph 7.4 mph 58 % 0.0 in
23:58 5.0 °F -2.6 °F 1006.0 in WSW 9.5 mph 9.5 mph 58 % 0.0 in
Meteo Sesrovires
Elogis d' Weather Underground - 1.75 mb

Guio original per  Jim McMurry - jmcmurry@mwt.net Adaptat per a la plantilla per  Wim van der Kuil - Leuven-Template.eu

Trobareu la nostra informacio del temps tambe a:

Weather Underground

AWEKAS